createdAt,value
2022-11-18T00:01:23.950Z,71.33
2022-11-18T00:03:52.309Z,70.77
2022-11-18T00:06:26.079Z,71.42
2022-11-18T00:08:54.900Z,70.68
2022-11-18T00:11:44.311Z,70.84
2022-11-18T00:14:31.634Z,70.54
2022-11-18T00:17:02.173Z,70.90
2022-11-18T00:19:35.369Z,70.60
2022-11-18T00:22:03.430Z,69.78
2022-11-18T00:24:30.551Z,69.72
2022-11-18T00:26:57.860Z,69.36
2022-11-18T00:29:28.290Z,70.21
2022-11-18T00:31:56.587Z,69.22
2022-11-18T00:34:24.742Z,69.46
2022-11-18T00:36:52.098Z,70.37
2022-11-18T00:39:20.893Z,69.70
2022-11-18T00:42:07.851Z,69.93
2022-11-18T00:44:35.396Z,70.90
2022-11-18T00:47:02.572Z,71.08
2022-11-18T00:49:29.882Z,70.93
2022-11-18T00:51:57.364Z,71.10
2022-11-18T00:54:24.594Z,71.02
2022-11-18T00:56:51.685Z,71.15
2022-11-18T00:59:18.901Z,72.43
2022-11-18T01:01:46.371Z,71.60
2022-11-18T01:04:13.631Z,71.83
2022-11-18T01:06:41.244Z,70.59
2022-11-18T01:09:08.292Z,70.96
2022-11-18T01:11:54.134Z,71.51
2022-11-18T01:14:23.723Z,72.43
2022-11-18T01:16:53.603Z,72.13
2022-11-18T01:19:21.012Z,72.17
2022-11-18T01:21:48.156Z,72.05
2022-11-18T01:24:15.654Z,71.92
2022-11-18T01:26:42.806Z,71.51
2022-11-18T01:29:10.452Z,70.23
2022-11-18T01:31:50.225Z,71.24
2022-11-18T01:34:29.297Z,71.45
2022-11-18T01:36:58.077Z,72.08
2022-11-18T01:39:25.796Z,71.99
2022-11-18T01:41:53.424Z,72.28
2022-11-18T01:45:17.238Z,72.63
2022-11-18T01:47:57.275Z,72.49
2022-11-18T01:50:26.245Z,72.32
2022-11-18T01:52:59.614Z,72.13
2022-11-18T01:55:31.308Z,72.25
2022-11-18T01:58:10.198Z,72.09
2022-11-18T02:00:38.076Z,72.32
2022-11-18T02:03:06.160Z,72.43
2022-11-18T02:05:35.259Z,71.69
2022-11-18T02:08:03.736Z,71.86
2022-11-18T02:10:30.984Z,71.82
2022-11-18T02:12:59.166Z,72.11
2022-11-18T02:16:15.966Z,71.79
2022-11-18T02:19:04.096Z,72.04
2022-11-18T02:21:42.948Z,71.57
2022-11-18T02:24:56.074Z,71.82
2022-11-18T02:28:14.516Z,71.89
2022-11-18T02:31:00.486Z,72.07
2022-11-18T02:33:45.997Z,72.52
2022-11-18T02:36:27.924Z,72.51
2022-11-18T02:39:10.852Z,72.73
2022-11-18T02:41:42.192Z,73.12
2022-11-18T02:44:16.650Z,72.44
2022-11-18T02:46:49.572Z,72.14
2022-11-18T02:49:27.512Z,72.24
2022-11-18T02:51:56.569Z,72.99
2022-11-18T02:54:26.503Z,73.90
2022-11-18T02:56:55.551Z,73.95
2022-11-18T02:59:22.799Z,74.02
2022-11-18T03:01:50.168Z,74.73
2022-11-18T03:04:18.632Z,74.80
2022-11-18T03:07:18.403Z,74.16
2022-11-18T03:09:50.766Z,75.40
2022-11-18T03:12:34.505Z,76.45
2022-11-18T03:15:11.381Z,75.90
2022-11-18T03:17:45.120Z,77.10
2022-11-18T03:20:58.959Z,76.89
2022-11-18T03:23:36.683Z,78.07
2022-11-18T03:26:18.527Z,77.87
2022-11-18T03:29:29.291Z,77.47
2022-11-18T03:32:17.604Z,77.21
2022-11-18T03:34:52.827Z,77.25
2022-11-18T03:37:23.219Z,77.89
2022-11-18T03:39:55.379Z,78.06
2022-11-18T03:42:33.006Z,78.07
2022-11-18T03:45:20.355Z,77.15
2022-11-18T03:47:59.973Z,77.94
2022-11-18T03:50:34.926Z,78.18
2022-11-18T03:53:04.210Z,78.01
2022-11-18T03:55:40.275Z,78.19
2022-11-18T03:58:32.080Z,78.23
2022-11-18T04:01:13.269Z,78.07
2022-11-18T04:03:41.204Z,79.36
2022-11-18T04:06:28.463Z,78.98
2022-11-18T04:09:01.864Z,79.11
2022-11-18T04:11:54.231Z,79.59
2022-11-18T04:14:21.383Z,81.38
2022-11-18T04:16:55.295Z,82.63
2022-11-18T04:19:22.840Z,82.33
2022-11-18T04:21:50.274Z,83.10
2022-11-18T04:24:17.809Z,83.02
2022-11-18T04:26:44.959Z,82.21
2022-11-18T04:29:12.633Z,83.82
2022-11-18T04:31:39.726Z,82.94
2022-11-18T04:34:06.860Z,82.37
2022-11-18T04:36:34.074Z,82.73
2022-11-18T04:39:01.591Z,81.99
2022-11-18T04:41:47.482Z,82.40
2022-11-18T04:44:14.630Z,82.33
2022-11-18T04:46:43.432Z,82.40
2022-11-18T04:49:13.400Z,83.43
2022-11-18T04:51:44.715Z,83.50
2022-11-18T04:54:12.942Z,83.17
2022-11-18T04:56:44.231Z,82.59
2022-11-18T04:59:17.865Z,82.94
2022-11-18T05:01:45.262Z,82.64
2022-11-18T05:04:16.140Z,82.84
2022-11-18T05:06:43.565Z,82.86
2022-11-18T05:09:11.563Z,83.27
2022-11-18T05:11:57.362Z,83.10
2022-11-18T05:14:31.649Z,82.29
2022-11-18T05:17:01.928Z,82.94
2022-11-18T05:19:29.344Z,82.72
2022-11-18T05:21:56.914Z,81.53
2022-11-18T05:24:24.430Z,81.92
2022-11-18T05:26:53.735Z,82.28
2022-11-18T05:29:22.079Z,82.54
2022-11-18T05:31:50.080Z,82.55
2022-11-18T05:34:18.480Z,82.40
2022-11-18T05:36:45.688Z,81.01
2022-11-18T05:39:12.978Z,80.41
2022-11-18T05:41:58.860Z,80.28
2022-11-18T05:44:26.118Z,79.91
2022-11-18T05:46:53.277Z,78.99
2022-11-18T05:49:20.644Z,78.80
2022-11-18T05:51:47.711Z,78.86
2022-11-18T05:54:18.202Z,78.65
2022-11-18T05:56:45.808Z,78.64
2022-11-18T05:59:14.171Z,78.27
2022-11-18T06:01:41.332Z,78.82
2022-11-18T06:04:26.037Z,77.48
2022-11-18T06:06:57.165Z,77.16
2022-11-18T06:09:30.232Z,77.43
2022-11-18T06:12:00.513Z,77.28
2022-11-18T06:14:42.422Z,76.80
2022-11-18T06:17:37.249Z,76.92
2022-11-18T06:20:06.281Z,76.89
2022-11-18T06:22:35.328Z,76.61
2022-11-18T06:25:03.916Z,75.83
2022-11-18T06:27:31.668Z,76.21
2022-11-18T06:29:58.804Z,76.91
2022-11-18T06:32:26.019Z,77.00
2022-11-18T06:34:53.271Z,77.55
2022-11-18T06:37:23.466Z,77.86
2022-11-18T06:39:50.632Z,78.04
2022-11-18T06:42:36.409Z,78.31
2022-11-18T06:45:06.080Z,77.98
2022-11-18T06:47:33.381Z,78.81
2022-11-18T06:50:00.494Z,78.35
2022-11-18T06:52:28.312Z,77.57
2022-11-18T06:54:55.393Z,78.00
2022-11-18T06:57:22.535Z,77.05
2022-11-18T06:59:49.939Z,76.89
2022-11-18T07:02:18.999Z,76.84
2022-11-18T07:04:46.486Z,76.97
2022-11-18T07:07:13.633Z,77.16
2022-11-18T07:09:40.924Z,77.01
2022-11-18T07:12:08.135Z,77.00
2022-11-18T07:14:35.211Z,76.41
2022-11-18T07:17:02.268Z,76.04
2022-11-18T07:19:35.450Z,75.68
2022-11-18T07:22:03.003Z,75.98
2022-11-18T07:24:30.067Z,76.11
2022-11-18T07:26:57.169Z,76.18
2022-11-18T07:29:24.293Z,75.53
2022-11-18T07:31:51.410Z,75.26
2022-11-18T07:34:18.591Z,75.21
2022-11-18T07:36:45.765Z,74.42
2022-11-18T07:39:12.873Z,73.54
2022-11-18T07:41:41.240Z,73.66
2022-11-18T07:44:11.776Z,73.38
2022-11-18T07:46:38.907Z,73.26
2022-11-18T07:49:09.290Z,72.66
2022-11-18T07:51:39.144Z,72.21
2022-11-18T07:54:13.378Z,72.16
2022-11-18T07:56:40.646Z,71.73
2022-11-18T07:59:08.974Z,72.66
2022-11-18T08:01:36.467Z,72.36
2022-11-18T08:04:12.564Z,72.33
2022-11-18T08:06:40.242Z,74.05
2022-11-18T08:09:08.431Z,72.75
2022-11-18T08:11:36.550Z,73.13
2022-11-18T08:14:03.969Z,72.41
2022-11-18T08:16:32.787Z,72.91
2022-11-18T08:19:00.981Z,72.19
2022-11-18T08:21:28.425Z,72.67
2022-11-18T08:23:57.908Z,72.02
2022-11-18T08:26:25.942Z,71.45
2022-11-18T08:28:53.774Z,71.39
2022-11-18T08:31:28.209Z,70.96
2022-11-18T08:34:07.629Z,71.03
2022-11-18T08:36:38.034Z,70.94
2022-11-18T08:39:08.815Z,69.51
2022-11-18T08:41:41.752Z,70.35
2022-11-18T08:44:14.490Z,71.16
2022-11-18T08:46:46.312Z,71.03
2022-11-18T08:49:13.680Z,71.87
2022-11-18T08:51:40.737Z,71.85
2022-11-18T08:54:07.859Z,72.84
2022-11-18T08:56:35.059Z,73.06
2022-11-18T08:59:02.369Z,72.46
2022-11-18T09:01:29.491Z,73.10
2022-11-18T09:03:58.310Z,73.68
2022-11-18T09:06:26.552Z,73.13
2022-11-18T09:08:54.194Z,72.49
2022-11-18T09:11:26.804Z,72.55
2022-11-18T09:16:44.801Z,70.45
2022-11-18T09:19:40.073Z,71.15
2022-11-18T09:21:59.612Z,70.26
2022-11-18T09:24:26.736Z,70.23
2022-11-18T09:26:54.186Z,69.95
2022-11-18T09:29:25.491Z,69.52
2022-11-18T09:31:54.278Z,69.10
2022-11-18T09:34:22.364Z,68.78
2022-11-18T09:36:49.785Z,69.20
2022-11-18T09:39:17.288Z,69.42
2022-11-18T09:41:58.074Z,68.03
2022-11-18T09:45:08.612Z,68.56
2022-11-18T09:47:39.223Z,67.07
2022-11-18T09:50:47.810Z,67.49
2022-11-18T09:53:21.704Z,67.42
2022-11-18T09:55:51.073Z,67.72
2022-11-18T09:58:37.980Z,67.76
2022-11-18T10:01:18.230Z,66.21
2022-11-18T10:03:45.672Z,65.62
2022-11-18T10:06:32.287Z,65.69
2022-11-18T10:09:39.955Z,66.81
2022-11-18T10:12:27.209Z,65.43
2022-11-18T10:15:12.785Z,65.13
2022-11-18T10:18:03.513Z,64.04
2022-11-18T10:20:51.185Z,63.86
2022-11-18T10:23:32.044Z,61.79
2022-11-18T10:25:59.132Z,62.95
2022-11-18T10:28:29.832Z,62.34
2022-11-18T10:31:12.301Z,63.06
2022-11-18T10:33:40.015Z,64.51
2022-11-18T10:36:33.279Z,64.63
2022-11-18T10:39:16.602Z,65.63
2022-11-18T10:41:52.360Z,65.24
2022-11-18T10:44:36.987Z,65.74
2022-11-18T10:47:25.257Z,64.70
2022-11-18T10:49:54.669Z,63.77
2022-11-18T10:52:22.930Z,63.51
2022-11-18T10:55:14.541Z,65.14
2022-11-18T10:57:45.839Z,65.15
2022-11-18T11:00:49.331Z,65.14
2022-11-18T11:03:39.212Z,65.29
2022-11-18T11:06:27.814Z,65.30
2022-11-18T11:09:03.541Z,64.68
2022-11-18T11:11:37.617Z,64.25
2022-11-18T11:14:07.583Z,64.13
2022-11-18T11:16:56.569Z,65.09
2022-11-18T11:19:31.899Z,65.90
2022-11-18T11:21:59.129Z,64.94
2022-11-18T11:24:28.439Z,64.54
2022-11-18T11:30:26.913Z,64.20
2022-11-18T11:33:31.366Z,64.45
2022-11-18T11:36:21.750Z,64.21
2022-11-18T11:39:20.744Z,64.48
2022-11-18T11:42:32.539Z,64.99
2022-11-18T11:45:17.981Z,65.77
2022-11-18T11:48:06.219Z,65.43
2022-11-18T11:51:03.844Z,65.21
2022-11-18T11:54:08.925Z,63.42
2022-11-18T11:56:41.405Z,64.78
2022-11-18T11:59:22.826Z,64.22
2022-11-18T12:02:14.344Z,65.11
2022-11-18T12:05:11.687Z,63.97
2022-11-18T12:07:59.848Z,64.19
2022-11-18T12:10:38.408Z,62.76
2022-11-18T12:13:43.958Z,62.89
2022-11-18T12:16:41.036Z,62.65
2022-11-18T12:19:21.476Z,62.44
2022-11-18T12:21:55.876Z,61.81
2022-11-18T12:24:43.435Z,62.22
2022-11-18T12:27:15.143Z,63.53
2022-11-18T12:29:56.542Z,63.72
2022-11-18T12:32:43.707Z,64.39
2022-11-18T12:35:13.507Z,63.94
2022-11-18T12:37:51.536Z,64.24
2022-11-18T12:40:38.533Z,65.20
2022-11-18T12:43:45.575Z,65.00
2022-11-18T12:46:44.399Z,64.69
2022-11-18T12:49:24.517Z,64.63
2022-11-18T12:52:01.958Z,64.22
2022-11-18T12:54:49.232Z,63.84
2022-11-18T12:57:24.086Z,64.10
2022-11-18T12:59:51.724Z,63.27
2022-11-18T13:02:30.832Z,62.42
2022-11-18T13:05:06.449Z,62.77
2022-11-18T13:08:14.195Z,62.22
2022-11-18T13:11:14.905Z,63.39
2022-11-18T13:13:43.038Z,63.43
2022-11-18T13:16:43.461Z,63.51
2022-11-18T13:19:23.825Z,64.44
2022-11-18T13:22:18.370Z,64.74
2022-11-18T13:24:51.813Z,65.00
2022-11-18T13:28:17.534Z,65.59
2022-11-18T13:31:33.335Z,65.61
2022-11-18T13:34:17.881Z,67.08
2022-11-18T13:36:47.534Z,67.09
2022-11-18T13:39:24.057Z,66.98
2022-11-18T13:42:24.748Z,67.60
2022-11-18T13:44:54.713Z,67.57
2022-11-18T13:47:48.971Z,67.88
2022-11-18T13:50:40.905Z,67.88
2022-11-18T13:53:32.073Z,67.67
2022-11-18T13:56:02.400Z,68.80
2022-11-18T14:01:35.288Z,68.50
2022-11-18T14:04:24.138Z,69.57
2022-11-18T14:06:51.383Z,70.62
2022-11-18T14:09:30.831Z,71.57
2022-11-18T14:12:28.779Z,71.87
2022-11-18T14:15:30.932Z,71.78
2022-11-18T14:18:00.556Z,72.01
2022-11-18T14:20:30.977Z,72.81
2022-11-18T14:23:03.315Z,74.70
2022-11-18T14:25:36.239Z,74.74
2022-11-18T14:28:17.008Z,74.83
2022-11-18T14:31:21.709Z,74.95
2022-11-18T14:34:27.569Z,74.35
2022-11-18T14:36:56.745Z,75.41
2022-11-18T14:39:32.439Z,74.78
2022-11-18T14:42:00.715Z,74.81
2022-11-18T14:44:28.834Z,75.30
2022-11-18T14:47:02.238Z,75.10
2022-11-18T14:49:31.596Z,76.20
2022-11-18T14:52:02.981Z,76.62
2022-11-18T14:54:30.601Z,77.24
2022-11-18T14:57:03.141Z,78.27
2022-11-18T14:59:30.511Z,78.26
2022-11-18T15:01:58.928Z,79.35
2022-11-18T15:04:26.387Z,79.05
2022-11-18T15:06:53.749Z,79.32
2022-11-18T15:09:21.407Z,79.70
2022-11-18T15:11:48.500Z,80.33
2022-11-18T15:14:16.076Z,78.95
2022-11-18T15:16:43.528Z,81.05
2022-11-18T15:19:16.111Z,80.91
2022-11-18T15:21:45.413Z,79.91
2022-11-18T15:24:12.738Z,79.98
2022-11-18T15:26:43.937Z,79.47
2022-11-18T15:29:24.057Z,79.73
2022-11-18T15:31:51.711Z,81.73
2022-11-18T15:34:20.953Z,81.87
2022-11-18T15:36:48.553Z,81.37
2022-11-18T15:39:15.705Z,80.53
2022-11-18T15:41:44.116Z,81.04
2022-11-18T15:44:12.105Z,80.73
2022-11-18T15:46:39.810Z,80.35
2022-11-18T15:49:09.694Z,80.42
2022-11-18T15:51:37.074Z,80.72
2022-11-18T15:54:04.608Z,81.02
2022-11-18T15:56:33.073Z,79.23
2022-11-18T15:59:04.158Z,79.09
2022-11-18T16:01:38.025Z,78.21
2022-11-18T16:04:07.300Z,77.00
2022-11-18T16:06:34.483Z,77.96
2022-11-18T16:09:02.375Z,77.36
2022-11-18T16:11:48.781Z,78.14
2022-11-18T16:14:19.636Z,78.12
2022-11-18T16:16:49.465Z,78.51
2022-11-18T16:19:20.247Z,78.52
2022-11-18T16:21:53.973Z,80.27
2022-11-18T16:24:27.344Z,80.37
2022-11-18T16:26:55.073Z,80.75
2022-11-18T16:29:23.092Z,80.52
2022-11-18T16:31:52.861Z,81.65
2022-11-18T16:34:28.652Z,79.95
2022-11-18T16:37:02.481Z,81.76
2022-11-18T16:39:30.066Z,81.65
2022-11-18T16:42:07.399Z,81.08
2022-11-18T16:44:36.903Z,80.03
2022-11-18T16:47:10.808Z,80.10
2022-11-18T16:49:39.763Z,79.23
2022-11-18T16:52:08.258Z,81.96
2022-11-18T16:54:38.254Z,81.10
2022-11-18T16:57:09.313Z,80.79
2022-11-18T16:59:36.358Z,80.07
2022-11-18T17:02:03.852Z,81.15
2022-11-18T17:04:31.160Z,81.28
2022-11-18T17:07:00.010Z,83.11
2022-11-18T17:09:28.105Z,84.29
2022-11-18T17:11:56.479Z,83.91
2022-11-18T17:14:23.872Z,80.86
2022-11-18T17:16:52.498Z,81.11
2022-11-18T17:19:22.647Z,80.28
2022-11-18T17:21:51.889Z,79.28
2022-11-18T17:24:22.845Z,80.87
2022-11-18T17:26:52.215Z,81.07
2022-11-18T17:29:20.027Z,81.08
2022-11-18T17:31:47.495Z,80.25
2022-11-18T17:34:15.845Z,81.86
2022-11-18T17:36:43.373Z,81.90
2022-11-18T17:39:12.450Z,80.73
2022-11-18T17:41:58.409Z,81.12
2022-11-18T17:44:27.281Z,80.81
2022-11-18T17:46:54.309Z,80.20
2022-11-18T17:49:22.269Z,78.43
2022-11-18T17:51:51.486Z,77.29
2022-11-18T17:54:20.354Z,78.74
2022-11-18T17:56:48.113Z,77.61
2022-11-18T17:59:17.272Z,77.73
2022-11-18T18:01:47.945Z,77.58
2022-11-18T18:04:20.498Z,77.73
2022-11-18T18:06:51.360Z,76.52
2022-11-18T18:09:21.764Z,77.08
2022-11-18T18:11:51.075Z,75.75
2022-11-18T18:14:19.435Z,75.08
2022-11-18T18:16:49.642Z,74.90
2022-11-18T18:19:23.187Z,74.58
2022-11-18T18:21:50.778Z,74.79
2022-11-18T18:24:20.251Z,73.62
2022-11-18T18:26:47.623Z,74.16
2022-11-18T18:29:15.092Z,76.19
2022-11-18T18:31:42.419Z,74.26
2022-11-18T18:34:09.573Z,75.06
2022-11-18T18:36:36.832Z,74.95
2022-11-18T18:39:04.574Z,74.66
2022-11-18T18:41:32.778Z,74.34
2022-11-18T18:44:00.689Z,75.42
2022-11-18T18:46:29.389Z,75.34
2022-11-18T18:49:12.136Z,74.67
2022-11-18T18:51:51.372Z,75.83
2022-11-18T18:54:20.808Z,75.21
2022-11-18T18:56:48.269Z,75.52
2022-11-18T18:59:15.313Z,74.86
2022-11-18T19:01:42.939Z,72.19
2022-11-18T19:04:13.890Z,73.83
2022-11-18T19:06:54.916Z,74.15
2022-11-18T19:09:26.071Z,73.98
2022-11-18T19:12:12.391Z,73.56
2022-11-18T19:14:40.132Z,72.82
2022-11-18T19:17:11.268Z,72.55
2022-11-18T19:19:59.902Z,69.99
2022-11-18T19:22:31.446Z,71.23
2022-11-18T19:25:00.547Z,71.20
2022-11-18T19:27:29.474Z,70.96
2022-11-18T19:29:56.774Z,71.93
2022-11-18T19:32:23.927Z,73.08
2022-11-18T19:34:51.187Z,73.13
2022-11-18T19:37:18.325Z,71.95
2022-11-18T19:39:45.820Z,71.39
2022-11-18T19:42:13.020Z,72.77
2022-11-18T19:44:40.304Z,72.75
2022-11-18T19:47:07.440Z,72.05
2022-11-18T19:49:34.699Z,72.38
2022-11-18T19:52:02.406Z,71.95
2022-11-18T19:54:29.898Z,72.45
2022-11-18T19:56:57.551Z,72.71
2022-11-18T19:59:24.906Z,72.03
2022-11-18T20:01:52.489Z,73.06
2022-11-18T20:04:19.716Z,72.91
2022-11-18T20:06:47.068Z,71.96
2022-11-18T20:09:14.372Z,72.58
2022-11-18T20:11:43.064Z,72.70
2022-11-18T20:14:11.882Z,72.33
2022-11-18T20:16:40.762Z,71.77
2022-11-18T20:19:10.899Z,71.50
2022-11-18T20:21:39.224Z,71.32
2022-11-18T20:24:08.232Z,71.41
2022-11-18T20:26:40.345Z,71.84
2022-11-18T20:29:08.778Z,72.31
2022-11-18T20:31:37.337Z,72.08
2022-11-18T20:34:04.992Z,70.85
2022-11-18T20:36:36.864Z,72.69
2022-11-18T20:39:08.443Z,72.89
2022-11-18T20:41:36.550Z,72.13
2022-11-18T20:44:04.736Z,70.93
2022-11-18T20:46:33.436Z,70.57
2022-11-18T20:49:00.810Z,70.32
2022-11-18T20:51:29.411Z,68.75
2022-11-18T20:53:58.792Z,68.88
2022-11-18T20:56:27.971Z,68.13
2022-11-18T20:58:58.231Z,68.37
2022-11-18T21:01:28.672Z,68.29
2022-11-18T21:04:01.337Z,68.62
2022-11-18T21:06:31.427Z,68.27
2022-11-18T21:09:04.232Z,68.98
2022-11-18T21:11:35.299Z,68.80
2022-11-18T21:14:24.053Z,68.26
2022-11-18T21:17:00.774Z,68.83
2022-11-18T21:19:29.063Z,69.03
2022-11-18T21:21:57.045Z,69.83
2022-11-18T21:24:34.989Z,69.05
2022-11-18T21:27:04.362Z,69.71
2022-11-18T21:29:33.318Z,69.42
2022-11-18T21:32:01.662Z,69.15
2022-11-18T21:34:29.572Z,69.05
2022-11-18T21:36:56.841Z,69.52
2022-11-18T21:39:25.116Z,70.23
2022-11-18T21:41:56.330Z,69.46
2022-11-18T21:44:26.110Z,70.23
2022-11-18T21:46:53.645Z,70.78
2022-11-18T21:49:20.859Z,70.88
2022-11-18T21:51:48.400Z,72.43
2022-11-18T21:54:16.101Z,73.54
2022-11-18T21:56:43.247Z,72.33
2022-11-18T21:59:10.635Z,73.17
2022-11-18T22:01:37.964Z,72.87
2022-11-18T22:04:05.945Z,73.60
2022-11-18T22:06:35.342Z,73.07
2022-11-18T22:09:04.374Z,73.61
2022-11-18T22:11:31.679Z,73.71
2022-11-18T22:13:58.810Z,73.59
2022-11-18T22:16:27.619Z,73.92
2022-11-18T22:19:03.648Z,73.88
2022-11-18T22:21:33.098Z,73.59
2022-11-18T22:24:01.331Z,72.79
2022-11-18T22:26:29.230Z,72.88
2022-11-18T22:28:58.785Z,72.63
2022-11-18T22:31:28.176Z,73.65
2022-11-18T22:33:56.466Z,73.69
2022-11-18T22:36:26.451Z,73.86
2022-11-18T22:38:54.300Z,73.00
2022-11-18T22:41:45.765Z,72.94
2022-11-18T22:44:16.194Z,72.94
2022-11-18T22:46:45.445Z,73.07
2022-11-18T22:49:13.271Z,72.52
2022-11-18T22:51:41.151Z,73.30
2022-11-18T22:54:37.156Z,72.96
2022-11-18T22:56:57.139Z,73.31
2022-11-18T22:59:24.995Z,73.11
2022-11-18T23:01:52.835Z,73.16
2022-11-18T23:04:19.958Z,73.14
2022-11-18T23:06:48.006Z,73.45
2022-11-18T23:09:15.174Z,73.45
2022-11-18T23:12:00.929Z,73.09
2022-11-18T23:14:28.079Z,73.41
2022-11-18T23:16:55.195Z,72.71
2022-11-18T23:19:22.505Z,72.92
2022-11-18T23:21:49.940Z,73.37
2022-11-18T23:24:19.513Z,73.38
2022-11-18T23:26:47.321Z,73.79
2022-11-18T23:29:19.562Z,73.26
2022-11-18T23:31:47.367Z,73.37
2022-11-18T23:34:15.987Z,73.37
2022-11-18T23:36:43.890Z,73.81
2022-11-18T23:39:11.426Z,72.93
2022-11-18T23:41:39.234Z,75.67
2022-11-18T23:44:06.816Z,74.14
2022-11-18T23:46:34.724Z,73.02
2022-11-18T23:49:01.891Z,73.12
2022-11-18T23:51:29.137Z,72.71
2022-11-18T23:53:58.120Z,72.15
2022-11-18T23:56:27.368Z,72.30
2022-11-18T23:58:57.086Z,72.16
